createdAt,value
2024-02-19T00:00:13.825Z,98608.84
2024-02-19T00:03:16.236Z,98610.66
2024-02-19T00:06:19.330Z,98612.47
2024-02-19T00:09:21.076Z,98606.28
2024-02-19T00:12:22.837Z,98612.47
2024-02-19T00:15:24.609Z,98607.16
2024-02-19T00:18:27.132Z,98612.47
2024-02-19T00:21:30.305Z,98612.53
2024-02-19T00:24:32.209Z,98617.81
2024-02-19T00:27:33.896Z,98618.69
2024-02-19T00:30:35.650Z,98623.06
2024-02-19T00:33:37.520Z,98620.44
2024-02-19T00:36:40.654Z,98625.66
2024-02-19T00:40:18.366Z,98626.47
2024-02-19T00:43:20.300Z,98639.63
2024-02-19T00:46:21.986Z,98658.09
2024-02-19T00:49:23.958Z,98654.41
2024-02-19T00:52:26.925Z,98657.81
2024-02-19T00:55:28.578Z,98674.53
2024-02-19T00:58:30.233Z,98664.72
2024-02-19T01:01:32.114Z,98668.19
2024-02-19T01:04:34.929Z,98662.84
2024-02-19T01:07:38.278Z,98669.06
2024-02-19T01:10:40.434Z,98685.03
2024-02-19T01:13:42.968Z,98690.34
2024-02-19T01:16:44.659Z,98693.97
2024-02-19T01:19:46.494Z,98692.34
2024-02-19T01:22:49.740Z,98705.78
2024-02-19T01:25:53.551Z,98705.88
2024-02-19T01:28:55.374Z,98720.09
2024-02-19T01:31:57.051Z,98720.22
2024-02-19T01:34:58.922Z,98730.81
2024-02-19T01:38:02.664Z,98738.03
2024-02-19T01:41:04.764Z,98750.47
2024-02-19T01:44:09.012Z,98751.50
2024-02-19T01:47:10.914Z,98755.97
2024-02-19T01:50:12.514Z,98772.00
2024-02-19T01:53:15.985Z,98787.91
2024-02-19T01:56:18.278Z,98784.47
2024-02-19T01:59:22.653Z,98788.91
2024-02-19T02:02:24.370Z,98789.78
2024-02-19T02:05:26.064Z,98791.59
2024-02-19T02:08:29.072Z,98799.59
2024-02-19T02:11:30.839Z,98803.16
2024-02-19T02:14:32.757Z,98815.59
2024-02-19T02:17:34.662Z,98812.13
2024-02-19T02:20:36.420Z,98821.94
2024-02-19T02:23:39.485Z,98827.34
2024-02-19T02:26:42.518Z,98821.16
2024-02-19T02:29:44.206Z,98826.50
2024-02-19T02:32:45.911Z,98832.63
2024-02-19T02:35:47.633Z,98836.19
2024-02-19T02:38:49.511Z,98840.63
2024-02-19T02:41:52.764Z,98847.78
2024-02-19T02:44:54.439Z,98848.78
2024-02-19T02:47:56.236Z,98855.09
2024-02-19T02:50:58.207Z,98863.06
2024-02-19T02:53:59.894Z,98872.81
2024-02-19T02:57:03.005Z,98865.03
2024-02-19T03:00:05.389Z,98875.75
2024-02-19T03:03:07.157Z,98880.25
2024-02-19T03:06:08.835Z,98883.03
2024-02-19T03:09:10.740Z,98877.81
2024-02-19T03:12:13.721Z,98875.16
2024-02-19T03:15:15.522Z,98886.72
2024-02-19T03:18:17.391Z,98886.84
2024-02-19T03:21:19.101Z,98895.75
2024-02-19T03:24:21.187Z,98892.22
2024-02-19T03:27:24.183Z,98904.63
2024-02-19T03:30:25.853Z,98895.81
2024-02-19T03:33:27.597Z,98909.09
2024-02-19T03:36:29.279Z,98903.78
2024-02-19T03:39:31.002Z,98914.47
2024-02-19T03:42:34.548Z,98918.03
2024-02-19T03:45:36.248Z,98927.81
2024-02-19T03:48:38.537Z,98935.81
2024-02-19T03:51:40.365Z,98931.41
2024-02-19T03:54:42.100Z,98944.72
2024-02-19T03:57:45.665Z,98944.72
2024-02-19T04:00:47.551Z,98948.28
2024-02-19T04:03:49.426Z,98954.44
2024-02-19T04:06:51.166Z,98957.09
2024-02-19T04:09:53.004Z,98959.75
2024-02-19T04:12:56.034Z,98972.09
2024-02-19T04:15:57.817Z,98978.25
2024-02-19T04:18:59.665Z,98979.16
2024-02-19T04:22:01.497Z,98981.81
2024-02-19T04:25:03.454Z,98977.41
2024-02-19T04:28:06.980Z,98985.31
2024-02-19T04:31:08.832Z,98988.88
2024-02-19T04:34:10.746Z,98988.00
2024-02-19T04:37:12.540Z,98994.13
2024-02-19T04:40:15.084Z,98993.28
2024-02-19T04:43:18.423Z,99005.66
2024-02-19T04:46:36.561Z,99008.22
2024-02-19T04:49:38.633Z,99007.34
2024-02-19T04:52:58.119Z,99021.47
2024-02-19T04:56:00.121Z,99020.56
2024-02-19T04:59:03.241Z,99026.75
2024-02-19T05:02:05.042Z,99016.13
2024-02-19T05:05:07.319Z,99013.47
2024-02-19T05:08:09.206Z,99011.75
2024-02-19T05:11:11.366Z,99020.59
2024-02-19T05:14:14.477Z,99017.94
2024-02-19T05:17:16.291Z,99019.75
2024-02-19T05:20:18.053Z,99025.94
2024-02-19T05:23:19.749Z,99028.56
2024-02-19T05:26:24.752Z,99035.63
2024-02-19T05:29:27.896Z,99037.38
2024-02-19T05:32:29.712Z,99047.03
2024-02-19T05:35:31.899Z,99040.88
2024-02-19T05:38:44.982Z,99044.41
2024-02-19T05:41:47.486Z,99047.94
2024-02-19T05:44:49.445Z,99053.22
2024-02-19T05:47:51.534Z,99054.06
2024-02-19T05:50:53.233Z,99055.00
2024-02-19T05:53:56.341Z,99052.44
2024-02-19T05:56:58.421Z,99065.75
2024-02-19T06:00:00.596Z,99053.41
2024-02-19T06:03:05.971Z,99069.25
2024-02-19T06:06:08.084Z,99066.59
2024-02-19T06:09:11.587Z,99074.53
2024-02-19T06:12:14.601Z,99086.03
2024-02-19T06:15:16.354Z,99090.41
2024-02-19T06:18:18.383Z,99091.28
2024-02-19T06:21:20.444Z,99081.56
2024-02-19T06:24:23.956Z,99077.19
2024-02-19T06:27:25.691Z,99098.31
2024-02-19T06:30:27.330Z,99093.06
2024-02-19T06:33:29.093Z,99107.16
2024-02-19T06:36:30.865Z,99105.38
2024-02-19T06:39:36.383Z,99104.47
2024-02-19T06:42:38.139Z,99103.56
2024-02-19T06:45:39.855Z,99104.44
2024-02-19T06:48:42.663Z,99117.63
2024-02-19T06:51:44.374Z,99115.88
2024-02-19T06:54:47.451Z,99125.53
2024-02-19T06:57:49.226Z,99122.88
2024-02-19T07:00:51.080Z,99137.81
2024-02-19T07:03:53.280Z,99134.28
2024-02-19T07:06:56.279Z,99144.78
2024-02-19T07:09:59.683Z,99138.63
2024-02-19T07:13:01.580Z,99143.00
2024-02-19T07:16:03.498Z,99142.09
2024-02-19T07:19:05.373Z,99152.63
2024-02-19T07:22:07.142Z,99149.06
2024-02-19T07:25:17.306Z,99153.44
2024-02-19T07:28:23.405Z,99154.28
2024-02-19T07:31:25.116Z,99154.25
2024-02-19T07:34:27.089Z,99163.06
2024-02-19T07:37:28.848Z,99168.34
2024-02-19T07:40:35.152Z,99174.50
2024-02-19T07:43:37.392Z,99179.75
2024-02-19T07:46:39.393Z,99175.28
2024-02-19T07:49:41.196Z,99178.81
2024-02-19T07:52:44.608Z,99184.94
2024-02-19T07:55:47.721Z,99184.00
2024-02-19T07:58:49.303Z,99179.59
2024-02-19T08:01:51.159Z,99180.38
2024-02-19T08:04:52.880Z,99178.59
2024-02-19T08:07:54.815Z,99184.72
2024-02-19T08:10:57.864Z,99181.13
2024-02-19T08:13:59.664Z,99181.09
2024-02-19T08:17:01.356Z,99171.34
2024-02-19T08:20:04.734Z,99193.41
2024-02-19T08:23:06.686Z,99182.75
2024-02-19T08:26:09.762Z,99196.00
2024-02-19T08:29:11.669Z,99198.50
2024-02-19T08:32:13.341Z,99194.00
2024-02-19T08:35:15.317Z,99197.47
2024-02-19T08:38:17.061Z,99192.94
2024-02-19T08:41:21.313Z,99201.72
2024-02-19T08:44:23.077Z,99187.50
2024-02-19T08:47:24.772Z,99176.84
2024-02-19T08:50:26.485Z,99185.53
2024-02-19T08:53:29.346Z,99197.81
2024-02-19T08:56:32.318Z,99181.94
2024-02-19T08:59:33.938Z,99179.16
2024-02-19T09:02:35.949Z,99187.91
2024-02-19T09:05:37.929Z,99196.59
2024-02-19T09:08:39.600Z,99188.63
2024-02-19T09:11:42.679Z,99192.00
2024-02-19T09:14:44.339Z,99181.09
2024-02-19T09:17:46.140Z,99188.69
2024-02-19T09:20:47.914Z,99181.00
2024-02-19T09:23:49.737Z,99179.03
2024-02-19T09:26:53.393Z,99178.66
2024-02-19T09:29:57.038Z,99177.06
2024-02-19T09:32:58.740Z,99183.28
2024-02-19T09:36:00.473Z,99175.22
2024-02-19T09:39:02.190Z,99175.97
2024-02-19T09:42:05.500Z,99172.25
2024-02-19T09:45:09.519Z,99182.69
2024-02-19T09:48:12.157Z,99184.25
2024-02-19T09:51:28.823Z,99180.69
2024-02-19T09:54:34.977Z,99188.28
2024-02-19T09:57:38.213Z,99185.78
2024-02-19T10:00:40.084Z,99187.31
2024-02-19T10:03:42.200Z,99183.72
2024-02-19T10:06:46.010Z,99193.66
2024-02-19T10:09:48.614Z,99186.63
2024-02-19T10:12:52.123Z,99188.13
2024-02-19T10:15:54.042Z,99195.97
2024-02-19T10:19:03.579Z,99193.53
2024-02-19T10:22:05.534Z,99200.94
2024-02-19T10:25:08.999Z,99195.75
2024-02-19T10:28:12.527Z,99193.19
2024-02-19T10:31:17.086Z,99190.66
2024-02-19T10:34:19.131Z,99187.16
2024-02-19T10:37:21.052Z,99180.22
2024-02-19T10:40:22.987Z,99180.16
2024-02-19T10:43:26.242Z,99177.44
2024-02-19T10:46:28.267Z,99176.59
2024-02-19T10:49:30.371Z,99171.34
2024-02-19T10:52:34.571Z,99181.00
2024-02-19T10:55:45.936Z,99181.72
2024-02-19T10:58:57.419Z,99179.03
2024-02-19T11:02:07.248Z,99177.19
2024-02-19T11:05:10.146Z,99175.38
2024-02-19T11:08:21.832Z,99185.75
2024-02-19T11:11:23.980Z,99191.97
2024-02-19T11:14:29.194Z,99177.88
2024-02-19T11:17:31.073Z,99180.47
2024-02-19T11:20:32.821Z,99180.44
2024-02-19T11:23:35.288Z,99174.31
2024-02-19T11:26:40.415Z,99176.91
2024-02-19T11:29:47.872Z,99174.03
2024-02-19T11:32:59.362Z,99161.59
2024-02-19T11:36:01.470Z,99175.13
2024-02-19T11:39:03.502Z,99158.97
2024-02-19T11:42:06.030Z,99163.03
2024-02-19T11:45:11.201Z,99153.25
2024-02-19T11:48:13.426Z,99141.75
2024-02-19T11:51:15.630Z,99146.06
2024-02-19T11:54:17.604Z,99143.41
2024-02-19T11:57:19.695Z,99151.28
2024-02-19T12:00:23.109Z,99147.84
2024-02-19T12:03:25.290Z,99150.69
2024-02-19T12:06:27.296Z,99160.47
2024-02-19T12:09:29.101Z,99147.13
2024-02-19T12:12:31.957Z,99146.94
2024-02-19T12:15:35.162Z,99142.34
2024-02-19T12:18:37.089Z,99141.63
2024-02-19T12:21:38.999Z,99134.47
2024-02-19T12:24:40.674Z,99133.53
2024-02-19T12:27:42.793Z,99120.97
2024-02-19T12:30:46.123Z,99132.78
2024-02-19T12:33:48.150Z,99125.69
2024-02-19T12:36:53.002Z,99119.28
2024-02-19T12:39:54.979Z,99121.13
2024-02-19T12:42:57.327Z,99109.63
2024-02-19T12:46:01.376Z,99114.78
2024-02-19T12:49:04.043Z,99111.47
2024-02-19T12:52:06.979Z,99112.44
2024-02-19T12:55:09.087Z,99110.50
2024-02-19T12:58:12.950Z,99098.66
2024-02-19T13:01:24.666Z,99098.50
2024-02-19T13:04:33.538Z,99094.97
2024-02-19T13:07:35.991Z,99084.44
2024-02-19T13:10:37.878Z,99091.56
2024-02-19T13:13:39.805Z,99087.91
2024-02-19T13:16:43.507Z,99079.88
2024-02-19T13:19:47.362Z,99077.38
2024-02-19T13:22:50.078Z,99071.91
2024-02-19T13:25:52.033Z,99081.69
2024-02-19T13:28:53.719Z,99075.34
2024-02-19T13:31:56.838Z,99071.84
2024-02-19T13:34:58.670Z,99061.22
2024-02-19T13:38:04.156Z,99057.63
2024-02-19T13:41:06.330Z,99070.13
2024-02-19T13:44:08.346Z,99084.34
2024-02-19T13:47:11.865Z,99077.41
2024-02-19T13:50:14.153Z,99073.25
2024-02-19T13:53:19.345Z,99078.66
2024-02-19T13:56:21.399Z,99077.06
2024-02-19T13:59:25.282Z,99079.88
2024-02-19T14:02:30.786Z,99069.31
2024-02-19T14:05:34.376Z,99082.69
2024-02-19T14:08:38.866Z,99081.88
2024-02-19T14:11:41.290Z,99077.59
2024-02-19T14:14:45.057Z,99070.59
2024-02-19T14:17:49.530Z,99072.28
2024-02-19T14:20:52.634Z,99071.31
2024-02-19T14:23:55.762Z,99067.72
2024-02-19T14:27:00.518Z,99073.03
2024-02-19T14:30:06.081Z,99069.50
2024-02-19T14:33:10.606Z,99062.41
2024-02-19T14:36:12.940Z,99059.75
2024-02-19T14:39:21.366Z,99048.22
2024-02-19T14:42:25.382Z,99050.66
2024-02-19T14:45:27.539Z,99041.56
2024-02-19T14:48:31.808Z,99037.84
2024-02-19T14:51:33.991Z,99046.69
2024-02-19T14:54:36.046Z,99038.00
2024-02-19T14:57:40.892Z,99040.72
2024-02-19T15:00:48.710Z,99046.03
2024-02-19T15:03:52.061Z,99040.72
2024-02-19T15:06:56.508Z,99035.34
2024-02-19T15:10:03.273Z,99032.63
2024-02-19T15:13:05.889Z,99025.53
2024-02-19T15:16:08.073Z,99028.06
2024-02-19T15:19:14.184Z,99029.88
2024-02-19T15:22:17.878Z,99029.00
2024-02-19T15:25:22.238Z,99029.88
2024-02-19T15:28:24.893Z,99027.22
2024-02-19T15:31:28.468Z,99029.88
2024-02-19T15:34:33.374Z,99028.06
2024-02-19T15:37:35.522Z,99022.75
2024-02-19T15:40:37.796Z,99025.34
2024-02-19T15:43:42.750Z,99018.28
2024-02-19T15:46:44.429Z,99014.75
2024-02-19T15:49:48.645Z,99017.41
2024-02-19T15:52:58.280Z,99014.75
2024-02-19T15:56:06.716Z,99011.25
2024-02-19T15:59:08.358Z,99007.72
2024-02-19T16:02:10.236Z,99012.22
2024-02-19T16:05:13.465Z,99016.69
2024-02-19T16:08:32.868Z,99016.84
2024-02-19T16:11:34.684Z,99025.72
2024-02-19T16:14:40.007Z,99021.34
2024-02-19T16:17:41.808Z,99013.47
2024-02-19T16:20:45.460Z,99014.41
2024-02-19T16:23:47.164Z,99011.78
2024-02-19T16:26:48.945Z,99010.97
2024-02-19T16:29:50.885Z,99003.94
2024-02-19T16:32:52.648Z,99004.91
2024-02-19T16:35:55.856Z,99000.56
2024-02-19T16:38:57.549Z,99000.66
2024-02-19T16:41:59.372Z,99004.31
2024-02-19T16:45:01.200Z,98996.59
2024-02-19T16:48:06.045Z,99004.69
2024-02-19T16:51:12.592Z,98999.47
2024-02-19T16:54:17.912Z,99006.63
2024-02-19T16:57:19.744Z,98993.34
2024-02-19T17:00:21.828Z,98996.91
2024-02-19T17:03:23.646Z,99006.56
2024-02-19T17:06:27.535Z,98992.47
2024-02-19T17:09:29.602Z,98992.50
2024-02-19T17:12:31.743Z,98999.56
2024-02-19T17:15:33.612Z,98989.84
2024-02-19T17:18:35.623Z,98996.91
2024-02-19T17:21:41.867Z,99000.47
2024-02-19T17:24:45.933Z,99002.22
2024-02-19T17:27:49.713Z,99000.47
2024-02-19T17:30:53.892Z,99008.44
2024-02-19T17:33:56.109Z,99002.22
2024-02-19T17:36:59.329Z,99001.34
2024-02-19T17:40:01.773Z,99005.75
2024-02-19T17:43:04.249Z,99005.69
2024-02-19T17:46:07.537Z,99008.34
2024-02-19T17:49:12.028Z,99010.13
2024-02-19T17:52:15.342Z,99006.63
2024-02-19T17:55:17.613Z,99007.47
2024-02-19T17:58:20.670Z,99005.66
2024-02-19T18:01:26.538Z,99008.25
2024-02-19T18:04:28.608Z,99004.63
2024-02-19T18:07:31.908Z,99007.28
2024-02-19T18:10:33.818Z,99007.28
2024-02-19T18:13:35.783Z,99002.84
2024-02-19T18:16:40.003Z,99002.84
2024-02-19T18:19:42.085Z,99005.53
2024-02-19T18:22:45.255Z,99006.41
2024-02-19T18:25:47.038Z,99004.56
2024-02-19T18:28:48.692Z,99003.72
2024-02-19T18:31:56.486Z,98999.25
2024-02-19T18:35:03.701Z,98991.28
2024-02-19T18:38:07.793Z,98982.44
2024-02-19T18:41:10.119Z,98991.34
2024-02-19T18:44:11.933Z,98992.22
2024-02-19T18:47:13.857Z,98990.47
2024-02-19T18:50:15.730Z,98984.28
2024-02-19T18:53:18.917Z,98993.22
2024-02-19T18:56:20.685Z,98981.69
2024-02-19T18:59:22.372Z,98976.38
2024-02-19T19:02:24.290Z,98974.63
2024-02-19T19:05:27.014Z,98973.00
2024-02-19T19:08:30.689Z,98974.78
2024-02-19T19:11:33.551Z,98983.75
2024-02-19T19:14:38.150Z,98978.56
2024-02-19T19:17:43.412Z,98976.91
2024-02-19T19:20:45.285Z,98983.28
2024-02-19T19:23:50.239Z,98981.69
2024-02-19T19:26:52.027Z,98975.78
2024-02-19T19:29:53.854Z,98983.06
2024-02-19T19:32:55.646Z,98977.03
2024-02-19T19:35:57.521Z,98971.88
2024-02-19T19:39:00.644Z,98966.66
2024-02-19T19:42:02.463Z,98968.53
2024-02-19T19:45:04.582Z,98974.81
2024-02-19T19:48:06.860Z,98982.91
2024-02-19T19:51:08.726Z,98982.97
2024-02-19T19:54:12.088Z,98976.94
2024-02-19T19:57:13.961Z,98979.63
2024-02-19T20:00:16.071Z,98987.72
2024-02-19T20:03:17.932Z,98989.56
2024-02-19T20:06:19.749Z,98987.88
2024-02-19T20:09:24.592Z,98990.63
2024-02-19T20:12:26.369Z,98990.69
2024-02-19T20:15:28.081Z,98978.38
2024-02-19T20:18:29.958Z,98990.88
2024-02-19T20:21:31.778Z,98987.41
2024-02-19T20:24:35.068Z,98992.78
2024-02-19T20:27:36.766Z,98989.25
2024-02-19T20:30:38.356Z,98995.47
2024-02-19T20:33:40.255Z,98990.16
2024-02-19T20:36:42.867Z,98992.78
2024-02-19T20:39:47.126Z,98992.81
2024-02-19T20:42:55.315Z,99001.63
2024-02-19T20:45:58.077Z,99004.31
2024-02-19T20:48:59.934Z,99002.59
2024-02-19T20:52:02.806Z,99001.72
2024-02-19T20:55:06.717Z,99008.75
2024-02-19T20:58:08.483Z,99012.25
2024-02-19T21:01:10.237Z,99012.25
2024-02-19T21:04:11.961Z,99013.09
2024-02-19T21:07:13.706Z,99013.97
2024-02-19T21:10:16.938Z,99018.38
2024-02-19T21:13:18.751Z,99012.19
2024-02-19T21:16:22.132Z,99021.84
2024-02-19T21:19:24.913Z,99023.59
2024-02-19T21:22:28.698Z,99021.78
2024-02-19T21:25:32.627Z,99026.22
2024-02-19T21:28:34.448Z,99023.59
2024-02-19T21:31:36.115Z,99028.84
2024-02-19T21:34:39.016Z,99027.94
2024-02-19T21:37:40.970Z,99032.31
2024-02-19T21:40:44.244Z,99042.84
2024-02-19T21:43:45.957Z,99033.97
2024-02-19T21:46:47.750Z,99037.50
2024-02-19T21:49:49.419Z,99041.84
2024-02-19T21:52:51.013Z,99047.06
2024-02-19T21:55:54.090Z,99046.19
2024-02-19T21:58:55.795Z,99044.41
2024-02-19T22:01:57.493Z,99040.94
2024-02-19T22:04:59.465Z,99043.59
2024-02-19T22:08:01.389Z,99044.53
2024-02-19T22:11:04.584Z,99040.19
2024-02-19T22:14:06.393Z,99042.88
2024-02-19T22:17:08.264Z,99046.41
2024-02-19T22:20:13.453Z,99047.31
2024-02-19T22:23:15.067Z,99047.31
2024-02-19T22:26:18.125Z,99057.94
2024-02-19T22:29:19.761Z,99053.53
2024-02-19T22:32:21.437Z,99055.28
2024-02-19T22:35:23.188Z,99057.09
2024-02-19T22:38:24.969Z,99053.53
2024-02-19T22:41:29.898Z,99057.09
2024-02-19T22:44:31.499Z,99056.19
2024-02-19T22:47:34.865Z,99059.81
2024-02-19T22:50:36.921Z,99055.38
2024-02-19T22:53:38.484Z,99062.53
2024-02-19T22:56:41.538Z,99053.66
2024-02-19T22:59:44.499Z,99055.50
2024-02-19T23:02:46.882Z,99056.44
2024-02-19T23:05:48.608Z,99059.94
2024-02-19T23:08:50.335Z,99060.84
2024-02-19T23:11:53.386Z,99054.66
2024-02-19T23:14:56.515Z,99059.16
2024-02-19T23:17:58.542Z,99060.00
2024-02-19T23:21:00.875Z,99068.88
2024-02-19T23:24:03.445Z,99067.09
2024-02-19T23:27:07.126Z,99076.84
2024-02-19T23:30:09.188Z,99071.53
2024-02-19T23:33:10.944Z,99075.09
2024-02-19T23:36:12.756Z,99073.34
2024-02-19T23:39:14.526Z,99068.97
2024-02-19T23:42:17.612Z,99077.00
2024-02-19T23:45:21.326Z,99079.66
2024-02-19T23:48:23.086Z,99082.34
2024-02-19T23:51:24.837Z,99078.88
2024-02-19T23:54:27.269Z,99084.25
2024-02-19T23:57:30.318Z,99080.75
